Kezdőlap
METAR-TAF:

METAR-TAF

Repülőterek :

Kuvaitváros, Kuvait

földrajzi szélesség: 29-13N, földrajzi hosszúság: 047-59E, magasság: 55 m

Jelenlegi meteorológiai megfigyelések

A jelentés 55 perccel ezelõtt készült, 07:00 UTC
Észak-északnyugati szél 7 kt
Hőmérséklet 17°C
Páratartalom 32%
Légköri nyomás 1016 hPa
Látótávolság: 5000 m
Derült ég
(gyenge) Száraz légköri homály

METAR: OKBK 240700Z 33007KT 5000 -HZ SKC 17/00 Q1016 NOSIG

Idő: 10:55 (07:55 UTC)

Előrejelzés

A jelentés 3 órával és 10 perccel ezelõtt készült, 04:45 UTC
Az előrejelzés 24-én 06 óra UTC és 25-én 12 óra UTC között érvényes
Különbözõ irányokból fújó szél 3 kt
Látótávolság: 6000 m

TAF: OKBK 240445Z 2406/2512 VRB03KT 6000 NSC

Meteorológiai megfigyelések és előrejelzések több, mint 4000 repülőtéren (METAR és TAF jelentéseket).

A térképen piros és sárga pontok jelzik az elérhető meteorológiai állomásokat.

Mozgassa az egeret a pont fölött, hogy megjelenjen az állomás neve.

Azután kattintson az időjárási megfigyelések és előrejelzések megtekintéséhez.

A térkép megváltoztatása: kattintson a fekete keresztel jelölt zöld gombra ráközelítéshez, a vonallal jelölt zöld gombra távolításhoz, vagy a zöld nyilakra a szomszédos térképek eléréséhez.


METAR-TAF: